Time;durP1;ratioP1;P1;durP2;ratioP2;P2;SDS_P1;SDS_P2;PMS_P1;PMS_P2;Temp;Humidity;BMP_temperature;BMP_pressure;BME280_temperature;BME280_humidity;BME280_pressure;Samples;Min_cycle;Max_cycle;Signal;HPM_P1;HPM_P2
2022/10/29 00:04:37;;;;;;;15.85;6.55;;;;;;;;;;12938278;22;20092;-76
2022/10/29 00:09:44;;;;;;;14.52;6.55;;;;;;;;;;12943499;22;19992;-72
2022/10/29 00:14:44;;;;;;;13.52;6.60;;;;;;;;;;12934031;23;19999;-71
2022/10/29 00:19:44;;;;;;;11.85;6.18;;;;;;;;;;12945617;23;19993;-74
2022/10/29 00:24:46;;;;;;;10.88;5.72;;;;;;;;;;12941685;23;20478;-76
2022/10/29 00:29:46;;;;;;;8.45;5.53;;;;;;;;;;12912754;22;20079;-73
2022/10/29 00:34:46;;;;;;;7.47;5.55;;;;;;;;;;12933095;23;20525;-78
2022/10/29 00:39:46;;;;;;;9.80;4.97;;;;;;;;;;12911809;22;19992;-76
2022/10/29 00:44:46;;;;;;;10.85;5.82;;;;;;;;;;12933426;22;20028;-78
2022/10/29 00:49:50;;;;;;;13.73;4.63;;;;;;;;;;12921746;22;19996;-74
2022/10/29 00:54:50;;;;;;;5.43;4.10;;;;;;;;;;12911607;23;20034;-74
2022/10/29 00:59:51;;;;;;;4.57;4.05;;;;;;;;;;12911144;23;19999;-75
2022/10/29 01:04:52;;;;;;;8.25;4.10;;;;;;;;;;12911669;23;20043;-76
2022/10/29 01:09:52;;;;;;;5.85;3.67;;;;;;;;;;12911442;23;19996;-74
2022/10/29 01:15:11;;;;;;;8.35;4.25;;;;;;;;;;12911015;23;19992;-76
2022/10/29 01:20:11;;;;;;;7.25;3.70;;;;;;;;;;12910958;23;20018;-74
2022/10/29 01:25:32;;;;;;;7.47;4.20;;;;;;;;;;12911196;23;20043;-76
2022/10/29 01:30:41;;;;;;;4.78;3.45;;;;;;;;;;12911270;23;20328;-74
2022/10/29 01:35:41;;;;;;;4.90;3.40;;;;;;;;;;12886112;23;19992;-80
2022/10/29 01:40:49;;;;;;;6.32;3.97;;;;;;;;;;12911632;23;20142;-74
2022/10/29 01:45:55;;;;;;;6.93;4.25;;;;;;;;;;12911203;23;20004;-79
2022/10/29 01:50:57;;;;;;;7.88;4.97;;;;;;;;;;12910692;22;19993;-75
2022/10/29 01:55:58;;;;;;;7.35;4.88;;;;;;;;;;12913055;23;20003;-74
2022/10/29 02:00:58;;;;;;;7.65;4.53;;;;;;;;;;12937120;22;20424;-74
2022/10/29 02:05:58;;;;;;;13.07;4.75;;;;;;;;;;12937361;22;20016;-80
2022/10/29 02:10:58;;;;;;;8.73;3.92;;;;;;;;;;12936998;22;19992;-74
2022/10/29 02:16:01;;;;;;;6.32;5.05;;;;;;;;;;12918007;23;20561;-75
2022/10/29 02:21:01;;;;;;;6.90;4.78;;;;;;;;;;12917662;23;20405;-75
2022/10/29 02:26:02;;;;;;;9.50;4.80;;;;;;;;;;12931238;23;20000;-74
2022/10/29 02:31:02;;;;;;;5.78;3.50;;;;;;;;;;12929300;23;20020;-75
2022/10/29 02:36:02;;;;;;;7.78;4.68;;;;;;;;;;12944646;23;19996;-75
2022/10/29 02:41:03;;;;;;;7.53;4.90;;;;;;;;;;12949356;23;20016;-82
2022/10/29 02:46:13;;;;;;;8.83;4.83;;;;;;;;;;12948350;22;20243;-73
2022/10/29 02:51:15;;;;;;;9.93;5.13;;;;;;;;;;12915363;23;19999;-77
2022/10/29 02:56:15;;;;;;;9.07;5.63;;;;;;;;;;12915067;23;20075;-81
2022/10/29 03:01:16;;;;;;;7.30;4.53;;;;;;;;;;12914925;23;20044;-73
2022/10/29 03:06:17;;;;;;;9.80;4.93;;;;;;;;;;12913544;23;20356;-73
2022/10/29 03:11:17;;;;;;;6.88;4.88;;;;;;;;;;12913865;23;19992;-74
2022/10/29 03:16:17;;;;;;;9.55;5.93;;;;;;;;;;12913002;23;19996;-76
2022/10/29 03:21:18;;;;;;;7.40;4.50;;;;;;;;;;12913416;23;20007;-74
2022/10/29 03:26:18;;;;;;;9.23;5.63;;;;;;;;;;12923956;22;20452;-78
2022/10/29 03:31:18;;;;;;;8.75;4.85;;;;;;;;;;12934543;22;20389;-76
2022/10/29 03:36:18;;;;;;;13.57;6.55;;;;;;;;;;12912068;23;20325;-74
2022/10/29 03:41:18;;;;;;;8.85;5.10;;;;;;;;;;12912116;23;20655;-74
2022/10/29 03:46:19;;;;;;;8.10;4.72;;;;;;;;;;12911945;23;20471;-77
2022/10/29 03:51:19;;;;;;;16.52;6.03;;;;;;;;;;12933197;23;20460;-76
2022/10/29 03:56:19;;;;;;;7.73;5.37;;;;;;;;;;12934082;22;20014;-74
2022/10/29 04:01:19;;;;;;;9.27;6.20;;;;;;;;;;12934513;22;20020;-75
2022/10/29 04:06:20;;;;;;;11.32;6.57;;;;;;;;;;12919400;22;20016;-74
2022/10/29 04:11:21;;;;;;;18.58;6.40;;;;;;;;;;12912128;23;20070;-73
2022/10/29 04:16:21;;;;;;;10.52;5.80;;;;;;;;;;12911431;23;19992;-74
2022/10/29 04:21:23;;;;;;;8.88;6.15;;;;;;;;;;12907285;23;20054;-82
2022/10/29 04:26:23;;;;;;;8.60;5.70;;;;;;;;;;12907957;22;20492;-74
2022/10/29 04:31:23;;;;;;;8.82;5.43;;;;;;;;;;12920676;22;20027;-76
2022/10/29 04:36:24;;;;;;;10.82;5.70;;;;;;;;;;12911206;23;20000;-75
2022/10/29 04:41:24;;;;;;;8.33;6.20;;;;;;;;;;12911952;23;19999;-75
2022/10/29 04:46:24;;;;;;;10.23;6.35;;;;;;;;;;12939940;22;20493;-74
2022/10/29 04:51:26;;;;;;;6.97;5.90;;;;;;;;;;12943321;22;19990;-76
2022/10/29 04:56:26;;;;;;;11.05;6.72;;;;;;;;;;12913691;23;20020;-74
2022/10/29 05:01:26;;;;;;;11.35;7.10;;;;;;;;;;12935286;22;19995;-77
2022/10/29 05:06:26;;;;;;;10.77;5.60;;;;;;;;;;12912863;23;20360;-78
2022/10/29 05:11:26;;;;;;;11.27;7.22;;;;;;;;;;12912431;23;20031;-78
2022/10/29 05:16:27;;;;;;;9.15;6.32;;;;;;;;;;12912786;22;20452;-80
2022/10/29 05:21:27;;;;;;;11.75;7.80;;;;;;;;;;12934651;22;19992;-75
2022/10/29 05:26:29;;;;;;;12.50;7.68;;;;;;;;;;12922384;22;20079;-75
2022/10/29 05:31:29;;;;;;;15.25;7.95;;;;;;;;;;12934404;23;19996;-74
2022/10/29 05:36:29;;;;;;;11.00;7.03;;;;;;;;;;12890791;23;20345;-75
2022/10/29 05:41:30;;;;;;;13.63;7.20;;;;;;;;;;12915190;22;20349;-75
2022/10/29 05:46:30;;;;;;;22.52;9.25;;;;;;;;;;12937363;22;20003;-80
2022/10/29 05:51:30;;;;;;;16.15;8.48;;;;;;;;;;12914706;23;19988;-73
2022/10/29 05:56:31;;;;;;;16.52;8.93;;;;;;;;;;12914489;23;19996;-73
2022/10/29 06:01:31;;;;;;;18.95;9.13;;;;;;;;;;12914771;23;20004;-79
2022/10/29 06:06:31;;;;;;;22.67;10.65;;;;;;;;;;12914557;22;20019;-74
2022/10/29 06:11:31;;;;;;;14.88;9.27;;;;;;;;;;12914738;23;20053;-74
2022/10/29 06:16:33;;;;;;;20.67;9.57;;;;;;;;;;12914437;23;20459;-74
2022/10/29 06:21:34;;;;;;;12.40;8.32;;;;;;;;;;12937316;22;19996;-73
2022/10/29 06:26:36;;;;;;;16.75;7.88;;;;;;;;;;12923070;23;20011;-74
2022/10/29 06:31:36;;;;;;;10.85;7.25;;;;;;;;;;12913617;22;20003;-75
2022/10/29 06:36:36;;;;;;;14.95;6.05;;;;;;;;;;12937324;22;19992;-77
2022/10/29 06:41:36;;;;;;;8.18;5.60;;;;;;;;;;12913705;22;20078;-79
2022/10/29 06:46:37;;;;;;;8.68;5.72;;;;;;;;;;12912194;23;20004;-74
2022/10/29 06:51:38;;;;;;;7.85;5.30;;;;;;;;;;12910750;23;20340;-73
2022/10/29 06:56:38;;;;;;;13.75;6.38;;;;;;;;;;12912040;23;19992;-74
2022/10/29 07:01:38;;;;;;;10.70;4.73;;;;;;;;;;12919631;23;20011;-72
2022/10/29 07:06:39;;;;;;;8.87;4.50;;;;;;;;;;12919108;23;20012;-74
2022/10/29 07:11:39;;;;;;;14.05;4.55;;;;;;;;;;12921897;23;20486;-77
2022/10/29 07:16:39;;;;;;;13.85;6.57;;;;;;;;;;12919316;22;20031;-75
2022/10/29 07:21:39;;;;;;;11.25;5.13;;;;;;;;;;12914680;23;20002;-74
2022/10/29 07:26:40;;;;;;;11.52;6.35;;;;;;;;;;12888056;22;20021;-75
2022/10/29 07:31:40;;;;;;;22.85;7.43;;;;;;;;;;12848752;23;20417;-79
2022/10/29 07:36:41;;;;;;;14.35;5.93;;;;;;;;;;12870290;23;19993;-75
2022/10/29 07:41:41;;;;;;;18.75;6.82;;;;;;;;;;12851485;23;19989;-74
2022/10/29 07:46:41;;;;;;;12.30;5.63;;;;;;;;;;12848514;23;20083;-74
2022/10/29 07:51:41;;;;;;;10.10;5.72;;;;;;;;;;12848354;23;20059;-77
2022/10/29 07:56:42;;;;;;;19.73;6.93;;;;;;;;;;12847893;23;20480;-78
2022/10/29 08:01:42;;;;;;;8.10;5.68;;;;;;;;;;12852313;23;20330;-79
2022/10/29 08:06:42;;;;;;;25.35;7.28;;;;;;;;;;12849073;23;20063;-81
2022/10/29 08:11:42;;;;;;;24.10;8.00;;;;;;;;;;12847855;23;20397;-75
2022/10/29 08:16:43;;;;;;;18.75;8.43;;;;;;;;;;12847775;23;20040;-80
2022/10/29 08:21:43;;;;;;;13.50;7.80;;;;;;;;;;12847599;23;20672;-75
2022/10/29 08:26:44;;;;;;;43.70;12.40;;;;;;;;;;12846788;23;20372;-74
2022/10/29 08:31:45;;;;;;;21.70;9.02;;;;;;;;;;12847797;23;20020;-74
2022/10/29 08:36:45;;;;;;;26.03;9.20;;;;;;;;;;12847353;23;20051;-78
2022/10/29 08:41:54;;;;;;;22.90;9.40;;;;;;;;;;12858970;23;20047;-73
2022/10/29 08:47:12;;;;;;;17.65;7.00;;;;;;;;;;12846126;23;20011;-81
2022/10/29 08:52:19;;;;;;;13.50;7.93;;;;;;;;;;12849442;23;19993;-75
2022/10/29 08:57:20;;;;;;;16.40;8.00;;;;;;;;;;12849220;23;20032;-75
2022/10/29 09:02:20;;;;;;;18.60;9.13;;;;;;;;;;12849234;23;20471;-78
2022/10/29 09:07:41;;;;;;;18.53;8.53;;;;;;;;;;12875264;23;20020;-76
2022/10/29 09:13:03;;;;;;;13.20;8.50;;;;;;;;;;12808161;23;19999;-76
2022/10/29 09:18:22;;;;;;;25.35;10.30;;;;;;;;;;12853939;23;20007;-74
2022/10/29 09:23:22;;;;;;;19.13;10.00;;;;;;;;;;12853232;23;20000;-74
2022/10/29 09:28:55;;;;;;;18.08;9.90;;;;;;;;;;12852338;23;20361;-78
2022/10/29 09:33:58;;;;;;;18.55;8.45;;;;;;;;;;12787697;23;20039;-75
2022/10/29 09:39:03;;;;;;;26.35;7.60;;;;;;;;;;12852706;23;19992;-72
2022/10/29 09:44:06;;;;;;;17.08;7.45;;;;;;;;;;12852069;23;20040;-74
2022/10/29 09:49:07;;;;;;;16.08;6.85;;;;;;;;;;12852596;23;19989;-76
2022/10/29 09:54:08;;;;;;;17.35;7.20;;;;;;;;;;12852583;23;20460;-73
2022/10/29 09:59:17;;;;;;;18.27;7.60;;;;;;;;;;12827004;23;19996;-77
2022/10/29 10:04:33;;;;;;;16.90;7.07;;;;;;;;;;12855515;23;20088;-75
2022/10/29 10:10:03;;;;;;;9.70;6.27;;;;;;;;;;12858378;23;20000;-76
2022/10/29 10:15:16;;;;;;;11.18;5.80;;;;;;;;;;12827228;23;19999;-75
2022/10/29 10:20:24;;;;;;;15.75;5.75;;;;;;;;;;12877277;23;20075;-75
2022/10/29 10:25:38;;;;;;;13.63;5.40;;;;;;;;;;12851095;23;20004;-77
2022/10/29 10:30:38;;;;;;;8.15;5.22;;;;;;;;;;12851381;23;20080;-74
2022/10/29 10:35:38;;;;;;;11.02;4.93;;;;;;;;;;12851591;23;20028;-72
2022/10/29 10:40:40;;;;;;;13.90;5.27;;;;;;;;;;12873698;23;20064;-79
2022/10/29 10:45:41;;;;;;;12.38;4.88;;;;;;;;;;12851015;23;20392;-74
2022/10/29 10:50:41;;;;;;;9.65;4.75;;;;;;;;;;12851560;23;20047;-75
2022/10/29 10:55:45;;;;;;;7.50;3.70;;;;;;;;;;12851642;23;19992;-75
2022/10/29 11:00:55;;;;;;;8.95;3.53;;;;;;;;;;12873620;23;20015;-75
2022/10/29 11:06:02;;;;;;;6.97;3.75;;;;;;;;;;12854810;23;20001;-75
2022/10/29 11:11:06;;;;;;;5.35;3.13;;;;;;;;;;12856003;23;19996;-73
2022/10/29 11:16:12;;;;;;;7.25;2.67;;;;;;;;;;12851670;23;20071;-75
2022/10/29 11:21:20;;;;;;;9.57;2.80;;;;;;;;;;12825845;23;20000;-72
2022/10/29 11:26:40;;;;;;;6.32;3.50;;;;;;;;;;12850311;23;20415;-79
2022/10/29 11:31:46;;;;;;;6.45;3.03;;;;;;;;;;12872978;23;19989;-74
2022/10/29 11:36:51;;;;;;;11.17;3.33;;;;;;;;;;12872712;23;19999;-81
2022/10/29 11:41:56;;;;;;;5.18;2.65;;;;;;;;;;12872466;23;20352;-75
2022/10/29 11:46:56;;;;;;;7.30;2.88;;;;;;;;;;12850654;23;20194;-77
2022/10/29 11:52:03;;;;;;;9.40;3.63;;;;;;;;;;12850954;23;20569;-73
2022/10/29 11:57:26;;;;;;;5.68;2.80;;;;;;;;;;12849885;23;20539;-75
2022/10/29 12:02:45;;;;;;;6.68;2.85;;;;;;;;;;12834134;23;20047;-73
2022/10/29 12:08:04;;;;;;;6.38;2.50;;;;;;;;;;12871943;23;19997;-75
2022/10/29 12:13:10;;;;;;;5.88;3.00;;;;;;;;;;12848223;23;19988;-77
2022/10/29 12:18:11;;;;;;;9.07;3.28;;;;;;;;;;12848752;23;19993;-74
2022/10/29 12:23:11;;;;;;;4.32;2.08;;;;;;;;;;12848522;23;20445;-76
2022/10/29 12:28:18;;;;;;;4.03;2.83;;;;;;;;;;12855431;23;20762;-74
2022/10/29 12:33:38;;;;;;;2.57;2.00;;;;;;;;;;12847558;23;20428;-73
2022/10/29 12:38:48;;;;;;;2.72;1.90;;;;;;;;;;12847375;23;20053;-76
2022/10/29 12:43:50;;;;;;;5.97;2.28;;;;;;;;;;12870188;23;20000;-78
2022/10/29 12:49:09;;;;;;;6.30;2.80;;;;;;;;;;12869818;23;20004;-75
2022/10/29 12:54:28;;;;;;;2.72;1.75;;;;;;;;;;12846813;23;20019;-74
2022/10/29 12:59:30;;;;;;;8.48;2.40;;;;;;;;;;12858755;23;20006;-72
2022/10/29 13:04:31;;;;;;;5.95;2.75;;;;;;;;;;12848731;23;20033;-74
2022/10/29 13:09:34;;;;;;;4.40;1.73;;;;;;;;;;12848345;23;20341;-72
2022/10/29 13:14:40;;;;;;;2.42;1.40;;;;;;;;;;12856209;23;20001;-74
2022/10/29 13:19:48;;;;;;;2.03;1.45;;;;;;;;;;12849351;23;20048;-74
2022/10/29 13:25:14;;;;;;;4.82;3.25;;;;;;;;;;12848581;23;20003;-75
2022/10/29 13:30:14;;;;;;;3.83;1.60;;;;;;;;;;12870138;23;20019;-72
2022/10/29 13:35:18;;;;;;;4.75;1.65;;;;;;;;;;12848320;23;20451;-78
2022/10/29 13:40:21;;;;;;;4.20;1.48;;;;;;;;;;12848032;23;20104;-73
2022/10/29 13:45:21;;;;;;;8.57;1.50;;;;;;;;;;12848038;23;19993;-77
2022/10/29 13:50:22;;;;;;;2.60;1.50;;;;;;;;;;12823708;23;20425;-75
2022/10/29 13:55:23;;;;;;;3.77;2.27;;;;;;;;;;12851935;23;20216;-74
2022/10/29 14:00:23;;;;;;;4.90;2.22;;;;;;;;;;12826659;23;20084;-79
2022/10/29 14:05:41;;;;;;;6.03;1.83;;;;;;;;;;12852340;23;20436;-73
2022/10/29 14:10:41;;;;;;;3.53;1.50;;;;;;;;;;12851534;23;19993;-79
2022/10/29 14:16:00;;;;;;;9.55;1.75;;;;;;;;;;12850637;23;20079;-75
2022/10/29 14:21:02;;;;;;;3.67;1.95;;;;;;;;;;12851543;23;20012;-75
2022/10/29 14:26:03;;;;;;;9.20;1.80;;;;;;;;;;12868009;23;20020;-74
2022/10/29 14:31:05;;;;;;;9.70;1.83;;;;;;;;;;12875949;23;20051;-74
2022/10/29 14:36:08;;;;;;;8.20;2.75;;;;;;;;;;12877328;23;19988;-75
2022/10/29 14:41:09;;;;;;;10.40;2.47;;;;;;;;;;12882285;23;20127;-73
2022/10/29 14:46:15;;;;;;;11.27;2.35;;;;;;;;;;12851253;23;20001;-75
2022/10/29 14:51:19;;;;;;;12.23;2.63;;;;;;;;;;12854729;23;20003;-73
2022/10/29 14:56:20;;;;;;;7.47;2.90;;;;;;;;;;12851374;23;20062;-74
2022/10/29 15:01:21;;;;;;;8.20;2.58;;;;;;;;;;12850993;23;20000;-74
2022/10/29 15:06:25;;;;;;;11.37;2.67;;;;;;;;;;12849709;23;20408;-74
2022/10/29 15:11:46;;;;;;;9.75;2.60;;;;;;;;;;12872834;23;19997;-74
2022/10/29 15:16:46;;;;;;;11.02;2.80;;;;;;;;;;12849190;23;19992;-80
2022/10/29 15:21:46;;;;;;;10.77;3.10;;;;;;;;;;12872329;23;19996;-73
2022/10/29 15:26:47;;;;;;;10.57;4.72;;;;;;;;;;12849847;23;20052;-74
2022/10/29 15:31:49;;;;;;;13.88;4.40;;;;;;;;;;12853600;23;20337;-73
2022/10/29 15:36:56;;;;;;;30.85;4.65;;;;;;;;;;12851796;23;19997;-73
2022/10/29 15:42:00;;;;;;;14.75;4.88;;;;;;;;;;12851116;23;20370;-73
2022/10/29 15:47:01;;;;;;;18.70;5.38;;;;;;;;;;12850411;23;20492;-75
2022/10/29 15:52:02;;;;;;;14.82;5.05;;;;;;;;;;12850103;23;20342;-73
2022/10/29 15:57:02;;;;;;;12.07;5.05;;;;;;;;;;12849693;23;20143;-75
2022/10/29 16:02:09;;;;;;;13.75;4.13;;;;;;;;;;12849093;23;20023;-75
2022/10/29 16:07:13;;;;;;;12.15;3.78;;;;;;;;;;12849335;23;20007;-73
2022/10/29 16:12:13;;;;;;;22.65;6.25;;;;;;;;;;12849195;23;19992;-75
2022/10/29 16:17:17;;;;;;;18.52;5.40;;;;;;;;;;12849308;23;20001;-73
2022/10/29 16:22:27;;;;;;;18.38;6.38;;;;;;;;;;12871508;23;19989;-75
2022/10/29 16:27:27;;;;;;;30.42;9.43;;;;;;;;;;12823826;23;20068;-79
2022/10/29 16:32:27;;;;;;;19.02;6.90;;;;;;;;;;12848561;23;19992;-75
2022/10/29 16:37:29;;;;;;;32.53;7.47;;;;;;;;;;12847699;23;20059;-76
2022/10/29 16:42:31;;;;;;;21.38;7.40;;;;;;;;;;12848462;23;20150;-73
2022/10/29 16:47:31;;;;;;;26.92;9.18;;;;;;;;;;12848422;23;20395;-74
2022/10/29 16:52:31;;;;;;;21.48;8.73;;;;;;;;;;12847991;23;20023;-73
2022/10/29 16:57:32;;;;;;;31.58;9.43;;;;;;;;;;12847037;23;20000;-79
2022/10/29 17:02:33;;;;;;;21.90;9.07;;;;;;;;;;12847018;23;20516;-80
2022/10/29 17:07:34;;;;;;;16.02;7.80;;;;;;;;;;12869922;23;20041;-78
2022/10/29 17:12:35;;;;;;;17.40;7.53;;;;;;;;;;12847040;23;20000;-78
2022/10/29 17:17:35;;;;;;;21.98;8.77;;;;;;;;;;12846477;23;20004;-80
2022/10/29 17:22:35;;;;;;;18.85;8.35;;;;;;;;;;12847126;23;19999;-79
2022/10/29 17:27:39;;;;;;;20.70;10.47;;;;;;;;;;12849413;23;20024;-81
2022/10/29 17:32:39;;;;;;;21.92;9.02;;;;;;;;;;12851185;23;20391;-75
2022/10/29 17:37:40;;;;;;;24.48;9.82;;;;;;;;;;12851381;23;20027;-74
2022/10/29 17:42:40;;;;;;;23.92;9.27;;;;;;;;;;12857965;23;20004;-73
2022/10/29 17:47:40;;;;;;;23.50;9.75;;;;;;;;;;12861762;23;20027;-77
2022/10/29 17:52:42;;;;;;;29.90;11.15;;;;;;;;;;12861247;23;20349;-79
2022/10/29 17:57:42;;;;;;;27.60;10.27;;;;;;;;;;12855725;23;20136;-73
2022/10/29 18:02:42;;;;;;;20.08;8.98;;;;;;;;;;12873792;23;19993;-78
2022/10/29 18:07:42;;;;;;;32.30;10.60;;;;;;;;;;12851122;23;20000;-75
2022/10/29 18:12:43;;;;;;;24.98;9.60;;;;;;;;;;12850981;23;19996;-75
2022/10/29 18:17:43;;;;;;;33.60;10.00;;;;;;;;;;12851707;23;19999;-80
2022/10/29 18:22:43;;;;;;;20.00;9.63;;;;;;;;;;12849818;23;20000;-78
2022/10/29 18:27:44;;;;;;;32.97;9.77;;;;;;;;;;12849682;23;20369;-74
2022/10/29 18:32:44;;;;;;;25.42;10.07;;;;;;;;;;12850185;23;20015;-74
2022/10/29 18:37:45;;;;;;;19.98;10.55;;;;;;;;;;12849579;23;20130;-79
2022/10/29 18:42:46;;;;;;;19.48;8.73;;;;;;;;;;12849016;23;19997;-78
2022/10/29 18:47:48;;;;;;;25.20;10.65;;;;;;;;;;12871955;23;20001;-76
2022/10/29 18:52:48;;;;;;;20.92;7.85;;;;;;;;;;12849746;23;20378;-77
2022/10/29 18:57:49;;;;;;;25.83;8.77;;;;;;;;;;12848568;23;20025;-78
2022/10/29 19:02:49;;;;;;;17.77;9.05;;;;;;;;;;12849545;23;19993;-76
2022/10/29 19:07:49;;;;;;;14.57;7.82;;;;;;;;;;12849421;23;20004;-75
2022/10/29 19:12:49;;;;;;;13.15;6.53;;;;;;;;;;12848806;23;20046;-73
2022/10/29 19:17:51;;;;;;;16.63;7.70;;;;;;;;;;12870864;23;19997;-75
2022/10/29 19:22:51;;;;;;;20.45;7.47;;;;;;;;;;12863098;23;19996;-78
2022/10/29 19:27:51;;;;;;;15.90;7.03;;;;;;;;;;12848427;23;20155;-74
2022/10/29 19:32:51;;;;;;;19.37;6.70;;;;;;;;;;12870273;23;19989;-74
2022/10/29 19:37:52;;;;;;;15.95;7.10;;;;;;;;;;12871350;23;20076;-74
2022/10/29 19:42:52;;;;;;;19.02;6.78;;;;;;;;;;12848257;23;19989;-75
2022/10/29 19:47:52;;;;;;;21.30;8.38;;;;;;;;;;12847395;23;20043;-73
2022/10/29 19:52:52;;;;;;;17.77;8.07;;;;;;;;;;12848289;23;20454;-74
2022/10/29 19:57:53;;;;;;;17.42;7.30;;;;;;;;;;12848641;23;20040;-76
2022/10/29 20:02:54;;;;;;;15.90;7.63;;;;;;;;;;12871338;23;20020;-74
2022/10/29 20:07:55;;;;;;;14.68;7.45;;;;;;;;;;12872071;23;20050;-75
2022/10/29 20:12:55;;;;;;;14.68;6.97;;;;;;;;;;12846607;23;20058;-76
2022/10/29 20:17:55;;;;;;;13.40;8.30;;;;;;;;;;12848174;23;20001;-76
2022/10/29 20:22:56;;;;;;;11.27;6.80;;;;;;;;;;12859364;23;19992;-75
2022/10/29 20:28:00;;;;;;;18.95;8.07;;;;;;;;;;12865410;23;20017;-81
2022/10/29 20:33:00;;;;;;;14.45;6.95;;;;;;;;;;12828080;23;20075;-76
2022/10/29 20:38:01;;;;;;;12.50;6.80;;;;;;;;;;12855409;23;19997;-75
2022/10/29 20:43:01;;;;;;;13.80;6.17;;;;;;;;;;12852923;23;19993;-73
2022/10/29 20:48:03;;;;;;;15.68;8.02;;;;;;;;;;12855727;23;20037;-74
2022/10/29 20:53:03;;;;;;;17.85;7.40;;;;;;;;;;12879732;23;19989;-76
2022/10/29 20:58:04;;;;;;;19.75;6.90;;;;;;;;;;12845407;23;19995;-78
2022/10/29 21:03:04;;;;;;;10.50;6.65;;;;;;;;;;12844227;23;20013;-76
2022/10/29 21:08:04;;;;;;;18.02;7.30;;;;;;;;;;12845106;23;20011;-78
2022/10/29 21:13:05;;;;;;;18.73;6.50;;;;;;;;;;12866762;23;19988;-76
2022/10/29 21:18:05;;;;;;;17.87;7.57;;;;;;;;;;12845449;23;20263;-73
2022/10/29 21:23:06;;;;;;;16.35;7.53;;;;;;;;;;12845530;23;20310;-79
2022/10/29 21:28:06;;;;;;;18.58;7.90;;;;;;;;;;12844774;23;20287;-81
2022/10/29 21:33:09;;;;;;;15.30;7.43;;;;;;;;;;12869569;23;20013;-76
2022/10/29 21:38:09;;;;;;;10.63;6.80;;;;;;;;;;12868437;23;20385;-76
2022/10/29 21:43:10;;;;;;;17.20;6.50;;;;;;;;;;12846488;23;20024;-80
2022/10/29 21:48:10;;;;;;;14.00;6.63;;;;;;;;;;12844510;23;20008;-78
2022/10/29 21:53:11;;;;;;;12.57;6.60;;;;;;;;;;12845754;23;20020;-74
2022/10/29 21:58:11;;;;;;;12.77;5.60;;;;;;;;;;12845009;23;19999;-75
2022/10/29 22:03:11;;;;;;;16.05;6.97;;;;;;;;;;12845197;23;20003;-74
2022/10/29 22:08:12;;;;;;;12.43;6.72;;;;;;;;;;12860500;23;20000;-78
2022/10/29 22:13:12;;;;;;;10.18;6.05;;;;;;;;;;12847943;23;19996;-76
2022/10/29 22:18:12;;;;;;;11.93;6.68;;;;;;;;;;12848416;23;19989;-75
2022/10/29 22:23:13;;;;;;;10.35;6.28;;;;;;;;;;12848181;23;19996;-76
2022/10/29 22:28:14;;;;;;;15.35;6.63;;;;;;;;;;12848304;23;20013;-80
2022/10/29 22:33:14;;;;;;;14.57;7.13;;;;;;;;;;12849478;23;20001;-75
2022/10/29 22:38:15;;;;;;;16.37;7.40;;;;;;;;;;12848295;23;20412;-78
2022/10/29 22:43:15;;;;;;;15.38;8.35;;;;;;;;;;12848959;23;20429;-79
2022/10/29 22:48:16;;;;;;;13.52;8.15;;;;;;;;;;12850244;23;20091;-74
2022/10/29 22:53:17;;;;;;;14.63;7.50;;;;;;;;;;12862283;23;19992;-76
2022/10/29 22:58:17;;;;;;;29.25;7.55;;;;;;;;;;12849069;23;19993;-75
2022/10/29 23:03:17;;;;;;;18.00;7.07;;;;;;;;;;12849908;23;20003;-77
2022/10/29 23:08:17;;;;;;;14.25;8.07;;;;;;;;;;12850834;23;19997;-79
2022/10/29 23:13:18;;;;;;;14.45;7.70;;;;;;;;;;12870091;23;20015;-75
2022/10/29 23:18:18;;;;;;;10.50;7.15;;;;;;;;;;12871158;23;20455;-79
2022/10/29 23:23:18;;;;;;;12.48;6.15;;;;;;;;;;12870944;23;19996;-74
2022/10/29 23:28:18;;;;;;;16.30;8.38;;;;;;;;;;12847123;23;20020;-76
2022/10/29 23:33:19;;;;;;;18.80;7.70;;;;;;;;;;12870660;23;20345;-74
2022/10/29 23:38:19;;;;;;;12.98;8.27;;;;;;;;;;12849361;23;20000;-77
2022/10/29 23:43:19;;;;;;;17.53;8.53;;;;;;;;;;12847733;23;20007;-76
2022/10/29 23:48:20;;;;;;;12.73;8.23;;;;;;;;;;12846962;23;20240;-75
2022/10/29 23:53:20;;;;;;;13.43;9.52;;;;;;;;;;12846857;23;20031;-79
2022/10/29 23:58:20;;;;;;;11.75;8.63;;;;;;;;;;12847357;23;19993;-76
